Relevés horaires Laegern (Suisse)


Relevés horaires à Laegern - Vendredi 19 Nov. 2021
Heure UTC1 Température [°C] Vent [km/h] Hum. [%] Pres.4 [hPa] Visi. [Km] Nébu. [octa] Préc.5 [mm] Cond.
2m. Res. Ros. Dir.2 Vit. Moy. Raf.3
23:00 4.0 4.0 -0.1 N 0.0 -- 13.0 75 850(-0.1/3h) -- -- -- --
22:00 5.4 5.4 -1.3 N 0.0 -- 11.1 62 850(0.2/3h) -- -- -- --
21:00 6.2 6.2 -7.0 NNO 0.0 -- 9.3 38 850(0.3/3h) -- -- -- --
20:00 5.9 5.9 -2.7 N 0.0 -- 7.4 54 850(0.3/3h) -- -- -- --
19:00 6.4 6.4 -7.6 NE 0.0 -- 7.4 36 850(0.1/3h) -- -- -- --
18:00 6.5 6.5 -8.2 E 0.0 -- 13.0 34 850(0.1/3h) -- -- -- --
17:00 6.1 6.1 -2.3 N 0.0 -- 11.1 55 850(-0.3/3h) -- -- -- --
16:00 6.3 6.3 -2.1 E 0.0 -- 13.0 55 850(-0.4/3h) -- -- -- --
15:00 8.4 8.4 -9.9 E 0.0 -- 13.0 26 850(-0.8/3h) -- -- -- --
14:00 8.1 8.1 -2.5 E 0.0 -- 9.3 47 850(-0.8/3h) -- -- -- --
13:00 4.4 4.4 0.4 SE 0.0 -- 11.1 75 850(-1.0/3h) -- -- -- --
12:00 6.6 6.6 1.3 ESE 0.0 -- 16.7 69 850(-0.6/3h) -- -- -- --
11:00 5.3 5.3 0.9 SE 0.0 -- 11.1 73 850(-0.5/3h) -- -- -- --
10:00 3.5 3.5 1.1 SSE 0.0 -- 13.0 84 850(0.2/3h) -- -- -- --
09:00 3.7 3.7 1.2 SE 0.0 -- 16.7 84 850(0.6/3h) -- -- -- --
08:00 3.3 3.3 1.3 SE 0.0 -- 11.1 87 850(0.7/3h) -- -- -- --
07:00 2.9 2.9 1.3 ESE 0.0 -- 11.1 89 850(0.2/3h) -- -- -- --
06:00 2.9 2.9 1.3 SSE 0.0 -- 11.1 89 850(-0.2/3h) -- -- -- --
05:00 2.2 2.2 1.2 NE 0.0 -- 9.3 93 850(-0.2/3h) -- -- -- --
04:00 2.1 2.1 1.1 N 0.0 -- 11.1 93 850(-0.2/3h) -- -- -- --
03:00 2.3 2.3 1.1 S 0.0 -- 11.1 92 850(-0.3/3h) -- -- -- --
02:00 2.5 2.5 1.1 S 0.0 -- 11.1 90 850(-0.2/3h) -- -- -- --
01:00 2.6 2.6 1.3 S 0.0 -- 9.3 91 850(-0.1/3h) -- -- -- --
00:00 2.9 2.9 1.2 S 0.0 -- 11.1 89 850(-0.1/3h) -- -- -- --

1 Coordinated Universal Time. Actuellement il est 10:00 locale et 08:00 UTC.

2 Le vent souffle depuis la direction indiquée vers la direction oposée.

3 Les rafales max. sont disponible 40 min après l'heure du relevé.

4 Pour les stations d'altitude (plus de 600m) le géopotentiel du niveau le plus proche de la pression obligatoire est indiqué.

5 Les stations disposant d'un diffuseur peuvent indiquer "trace". Cela signifie que des précipitations ont touchés le sol mais que la quantité est inférieure à 0.1 mm.

Copyright

Les données affichées sur cette page sont la propriété exclusive de Météo Suisse.

Récapitulatif de la journée
Température [°C] Vent [km/h] Ensoleillement4 [h] Precipitations totale5 [mm] Pression [Hpa]
Min1 Max.2 Moy.3 Max. Min Max.
2.0 8.4 0 16.7 8 h 6 min 0 850.0 850.0

1 Température minimale relevée entre 18:00 UTC la veille et 18:00 UTC le jour donné.

2 Température maximale relevée entre 06:00 UTC le jour donné et 06:00 UTC le lendemain.

3 Vent moyen de la journée basé sur les relevés horaires.

4 Ensoleillement en heures relevé entre 06:00 UTC la veille et 06:00 UTC le jour donné.

5 Précipitations totales tombées entre 06:00 UTC la jour donné et 06:00 UTC le lendemain.

Graphiques horaires